Hurghada, Egyiptom

2014 Szeptember 19 12:46 PM (EEST időzóna) (GMT +0300)
Hurghada International | Change Station
CLOSE
Current Station
Repülőtér
Location: Hurghada,
Elevation: 46 ft
Közeli meteorológiai állomások

Elev 46 ft 27.18 °N, 33.80 °E | Updated 46 minutes ago

Clear
Derült
93 °F
Hőérzet 98 °F
N
21
Szél: változó Szél: from északi

Ma
High -- | Low -- °F
--% Csapadék valószínű
Tegnapi
High -- | Low -- °F
Precip. -- hvlyk.
6:32 AM 6:45 PM
Fogyó holdsarló, 20% visible
Légnyomás 29.89 hvlyk.
Látótávolság -9999.0 mérföld
Felhők
Hőskála 98 °F
Harmatpont 68 °F
Páratartalom 44%
Rainfall 0.00 hvlyk.
Hóréteg vastagsága Not available.
UV Not available.
Pollen Not available.
A levegő minősége Not available.
Flu Activity Not available.
METAR HEGN 190900Z 01018KT CAVOK 34/20 Q1012 NOSIG

More Conditions Fewer Conditions

Légnyomás 29.89 hvlyk.
Látótávolság -9999.0 mérföld
Felhők
Hőskála 98 °F
Harmatpont 68 °F
Páratartalom 44%
Rainfall 0.00 hvlyk.
Hóréteg vastagsága Not available.
UV Not available.
Pollen Not available.
A levegő minősége Not available.
Flu Activity Not available.
METAR HEGN 190900Z 01018KT CAVOK 34/20 Q1012 NOSIG

More Conditions Fewer Conditions

10-Day Weather Forecast

Almanac

Csillagászat

Sep. 19, 2014 Kel Nyugszik
Tényleges idő 6:32 AM EEST 6:45 PM EEST
Civil alkony 6:08 AM EEST 7:08 PM EEST
Tengerészeti alkony 5:41 AM EEST 7:35 PM EEST
Csillagászati alkony 5:14 AM EEST 8:03 PM EEST
Hold 2:18 AM EEST 3:44 PM EEST
Látható fény időtartama 12h 59m
A nap hossza
12h 13m
Tomorrow will be 1m 35s shorter.
Fogyó holdsarló, 20% of the Moon is Illuminated
Ma
Fogyó holdsarló
Sep 24
Új
Oct 1
első negyed
Oct 8
telihold
Oct 15
utolsó negyed

Yesterday's Extremes

Country Highs Country Lows

Community

WunderPhotos

Upload Photos

1,754,583 Fotók feltöltve.

Nearby

A levegő minősége

Not available.

Hóréteg vastagsága

Not available.

Earthquake Activity

város Distance Mag. Time & Date
No recent earthquake activity has been reported nearby.
Minimum magnitude displayed is 2.5.

Coastal Water Temperatures

Hely Hőmérséklet
No Stations Reporting

Közeli meteorológiai állomások